sensor_id;sensor_type;location;lat;lon;timestamp;P1;durP1;ratioP1;P2;durP2;ratioP2
673;SDS011;319;48.764;9.174;2022-09-24T00:01:24;1.00;;;1.00;;
673;SDS011;319;48.764;9.174;2022-09-24T00:03:53;1.10;;;1.10;;
673;SDS011;319;48.764;9.174;2022-09-24T00:06:21;1.10;;;1.10;;
673;SDS011;319;48.764;9.174;2022-09-24T00:08:49;1.00;;;1.00;;
673;SDS011;319;48.764;9.174;2022-09-24T00:11:18;1.00;;;1.00;;
673;SDS011;319;48.764;9.174;2022-09-24T00:13:47;1.00;;;1.00;;
673;SDS011;319;48.764;9.174;2022-09-24T00:16:15;1.00;;;1.00;;
673;SDS011;319;48.764;9.174;2022-09-24T00:18:43;1.10;;;1.10;;
673;SDS011;319;48.764;9.174;2022-09-24T00:21:11;1.10;;;1.10;;
673;SDS011;319;48.764;9.174;2022-09-24T00:23:40;1.00;;;1.00;;
673;SDS011;319;48.764;9.174;2022-09-24T00:26:09;1.10;;;1.10;;
673;SDS011;319;48.764;9.174;2022-09-24T00:29:04;1.30;;;1.30;;
673;SDS011;319;48.764;9.174;2022-09-24T00:31:31;1.40;;;1.40;;
673;SDS011;319;48.764;9.174;2022-09-24T00:33:58;1.60;;;1.60;;
673;SDS011;319;48.764;9.174;2022-09-24T00:36:25;1.60;;;1.60;;
673;SDS011;319;48.764;9.174;2022-09-24T00:38:53;1.80;;;1.80;;
673;SDS011;319;48.764;9.174;2022-09-24T00:41:22;2.00;;;2.00;;
673;SDS011;319;48.764;9.174;2022-09-24T00:43:51;1.73;;;1.73;;
673;SDS011;319;48.764;9.174;2022-09-24T00:46:21;2.00;;;2.00;;
673;SDS011;319;48.764;9.174;2022-09-24T00:48:52;2.27;;;2.27;;
673;SDS011;319;48.764;9.174;2022-09-24T00:51:22;2.10;;;2.10;;
673;SDS011;319;48.764;9.174;2022-09-24T00:53:52;1.80;;;1.80;;
673;SDS011;319;48.764;9.174;2022-09-24T00:56:23;1.90;;;1.90;;
673;SDS011;319;48.764;9.174;2022-09-24T00:58:51;1.80;;;1.80;;
673;SDS011;319;48.764;9.174;2022-09-24T01:01:22;2.00;;;2.00;;
673;SDS011;319;48.764;9.174;2022-09-24T01:03:50;1.60;;;1.60;;
673;SDS011;319;48.764;9.174;2022-09-24T01:06:20;1.40;;;1.40;;
673;SDS011;319;48.764;9.174;2022-09-24T01:08:47;1.40;;;1.40;;
673;SDS011;319;48.764;9.174;2022-09-24T01:14:13;1.30;;;1.30;;
673;SDS011;319;48.764;9.174;2022-09-24T01:16:59;1.03;;;1.03;;
673;SDS011;319;48.764;9.174;2022-09-24T01:19:40;1.00;;;1.00;;
673;SDS011;319;48.764;9.174;2022-09-24T01:22:20;1.00;;;1.00;;
673;SDS011;319;48.764;9.174;2022-09-24T01:24:57;1.00;;;1.00;;
673;SDS011;319;48.764;9.174;2022-09-24T01:27:30;1.00;;;1.00;;
673;SDS011;319;48.764;9.174;2022-09-24T01:30:12;1.10;;;1.10;;
673;SDS011;319;48.764;9.174;2022-09-24T01:32:40;0.90;;;0.90;;
673;SDS011;319;48.764;9.174;2022-09-24T01:35:14;1.10;;;1.10;;
673;SDS011;319;48.764;9.174;2022-09-24T01:37:46;1.30;;;1.30;;
673;SDS011;319;48.764;9.174;2022-09-24T01:40:17;1.10;;;1.10;;
673;SDS011;319;48.764;9.174;2022-09-24T01:42:47;1.10;;;1.10;;
673;SDS011;319;48.764;9.174;2022-09-24T01:45:17;1.60;;;1.60;;
673;SDS011;319;48.764;9.174;2022-09-24T01:47:45;3.03;;;2.93;;
673;SDS011;319;48.764;9.174;2022-09-24T01:50:13;1.20;;;1.20;;
673;SDS011;319;48.764;9.174;2022-09-24T01:52:43;1.40;;;1.40;;
673;SDS011;319;48.764;9.174;2022-09-24T01:55:14;1.30;;;1.30;;
673;SDS011;319;48.764;9.174;2022-09-24T01:57:44;1.10;;;1.10;;
673;SDS011;319;48.764;9.174;2022-09-24T02:00:14;1.10;;;1.10;;
673;SDS011;319;48.764;9.174;2022-09-24T02:02:47;1.00;;;1.00;;
673;SDS011;319;48.764;9.174;2022-09-24T02:05:21;1.00;;;1.00;;
673;SDS011;319;48.764;9.174;2022-09-24T02:07:56;1.03;;;1.03;;
673;SDS011;319;48.764;9.174;2022-09-24T02:10:28;1.00;;;1.00;;
673;SDS011;319;48.764;9.174;2022-09-24T02:13:00;1.00;;;1.00;;
673;SDS011;319;48.764;9.174;2022-09-24T02:15:31;1.00;;;1.00;;
673;SDS011;319;48.764;9.174;2022-09-24T02:18:02;1.00;;;1.00;;
673;SDS011;319;48.764;9.174;2022-09-24T02:20:33;1.00;;;1.00;;
673;SDS011;319;48.764;9.174;2022-09-24T02:23:02;1.00;;;1.00;;
673;SDS011;319;48.764;9.174;2022-09-24T02:25:33;1.00;;;1.00;;
673;SDS011;319;48.764;9.174;2022-09-24T02:28:04;1.00;;;1.00;;
673;SDS011;319;48.764;9.174;2022-09-24T02:30:32;1.00;;;1.00;;
673;SDS011;319;48.764;9.174;2022-09-24T02:33:04;1.00;;;1.00;;
673;SDS011;319;48.764;9.174;2022-09-24T02:35:55;1.30;;;1.30;;
673;SDS011;319;48.764;9.174;2022-09-24T02:38:21;1.00;;;1.00;;
673;SDS011;319;48.764;9.174;2022-09-24T02:40:48;1.00;;;1.00;;
673;SDS011;319;48.764;9.174;2022-09-24T02:43:16;0.97;;;0.97;;
673;SDS011;319;48.764;9.174;2022-09-24T02:45:44;1.00;;;1.00;;
673;SDS011;319;48.764;9.174;2022-09-24T02:48:11;1.23;;;1.23;;
673;SDS011;319;48.764;9.174;2022-09-24T02:50:38;1.00;;;1.00;;
673;SDS011;319;48.764;9.174;2022-09-24T02:53:04;1.00;;;1.00;;
673;SDS011;319;48.764;9.174;2022-09-24T02:55:31;1.00;;;1.00;;
673;SDS011;319;48.764;9.174;2022-09-24T02:57:58;1.00;;;1.00;;
673;SDS011;319;48.764;9.174;2022-09-24T03:00:25;1.10;;;1.10;;
673;SDS011;319;48.764;9.174;2022-09-24T03:02:54;1.00;;;1.00;;
673;SDS011;319;48.764;9.174;2022-09-24T03:05:20;1.00;;;1.00;;
673;SDS011;319;48.764;9.174;2022-09-24T03:07:47;1.00;;;1.00;;
673;SDS011;319;48.764;9.174;2022-09-24T03:10:14;1.00;;;1.00;;
673;SDS011;319;48.764;9.174;2022-09-24T03:12:41;1.00;;;1.00;;
673;SDS011;319;48.764;9.174;2022-09-24T03:15:08;1.10;;;1.10;;
673;SDS011;319;48.764;9.174;2022-09-24T03:17:35;1.07;;;1.07;;
673;SDS011;319;48.764;9.174;2022-09-24T03:20:04;1.03;;;1.03;;
673;SDS011;319;48.764;9.174;2022-09-24T03:22:32;1.00;;;1.00;;
673;SDS011;319;48.764;9.174;2022-09-24T03:24:58;1.00;;;1.00;;
673;SDS011;319;48.764;9.174;2022-09-24T03:27:27;1.10;;;1.10;;
673;SDS011;319;48.764;9.174;2022-09-24T03:29:53;1.10;;;1.10;;
673;SDS011;319;48.764;9.174;2022-09-24T03:32:38;1.00;;;1.00;;
673;SDS011;319;48.764;9.174;2022-09-24T03:35:06;1.10;;;1.10;;
673;SDS011;319;48.764;9.174;2022-09-24T03:37:34;1.10;;;1.10;;
673;SDS011;319;48.764;9.174;2022-09-24T03:40:02;1.00;;;1.00;;
673;SDS011;319;48.764;9.174;2022-09-24T03:42:30;1.00;;;1.00;;
673;SDS011;319;48.764;9.174;2022-09-24T03:44:58;1.00;;;1.00;;
673;SDS011;319;48.764;9.174;2022-09-24T03:47:25;1.00;;;1.00;;
673;SDS011;319;48.764;9.174;2022-09-24T03:49:52;0.90;;;0.90;;
673;SDS011;319;48.764;9.174;2022-09-24T03:52:20;1.10;;;1.10;;
673;SDS011;319;48.764;9.174;2022-09-24T03:54:47;1.10;;;1.10;;
673;SDS011;319;48.764;9.174;2022-09-24T03:57:14;1.00;;;1.00;;
673;SDS011;319;48.764;9.174;2022-09-24T03:59:41;1.00;;;1.00;;
673;SDS011;319;48.764;9.174;2022-09-24T04:02:09;1.00;;;1.00;;
673;SDS011;319;48.764;9.174;2022-09-24T04:04:36;1.10;;;1.10;;
673;SDS011;319;48.764;9.174;2022-09-24T04:07:04;1.10;;;1.10;;
673;SDS011;319;48.764;9.174;2022-09-24T04:09:32;1.00;;;1.00;;
673;SDS011;319;48.764;9.174;2022-09-24T04:11:59;1.00;;;1.00;;
673;SDS011;319;48.764;9.174;2022-09-24T04:14:26;2.43;;;2.43;;
673;SDS011;319;48.764;9.174;2022-09-24T04:16:53;3.30;;;3.20;;
673;SDS011;319;48.764;9.174;2022-09-24T04:19:20;3.10;;;3.00;;
673;SDS011;319;48.764;9.174;2022-09-24T04:21:47;3.00;;;2.90;;
673;SDS011;319;48.764;9.174;2022-09-24T04:24:13;3.30;;;3.20;;
673;SDS011;319;48.764;9.174;2022-09-24T04:26:42;3.70;;;3.60;;
673;SDS011;319;48.764;9.174;2022-09-24T04:29:08;2.40;;;2.40;;
673;SDS011;319;48.764;9.174;2022-09-24T04:31:37;2.67;;;2.67;;
673;SDS011;319;48.764;9.174;2022-09-24T04:34:04;3.10;;;3.00;;
673;SDS011;319;48.764;9.174;2022-09-24T04:36:31;3.30;;;3.20;;
673;SDS011;319;48.764;9.174;2022-09-24T04:38:58;2.67;;;2.67;;
673;SDS011;319;48.764;9.174;2022-09-24T04:41:25;2.40;;;2.40;;
673;SDS011;319;48.764;9.174;2022-09-24T04:43:53;2.10;;;2.10;;
673;SDS011;319;48.764;9.174;2022-09-24T04:46:21;2.40;;;2.40;;
673;SDS011;319;48.764;9.174;2022-09-24T04:48:50;2.07;;;2.07;;
673;SDS011;319;48.764;9.174;2022-09-24T04:51:17;1.50;;;1.50;;
673;SDS011;319;48.764;9.174;2022-09-24T04:53:45;1.20;;;1.20;;
673;SDS011;319;48.764;9.174;2022-09-24T04:56:15;1.20;;;1.20;;
673;SDS011;319;48.764;9.174;2022-09-24T04:58:41;1.10;;;1.10;;
673;SDS011;319;48.764;9.174;2022-09-24T05:01:11;1.10;;;1.10;;
673;SDS011;319;48.764;9.174;2022-09-24T05:03:38;1.20;;;1.20;;
673;SDS011;319;48.764;9.174;2022-09-24T05:06:05;1.07;;;1.07;;
673;SDS011;319;48.764;9.174;2022-09-24T05:08:32;1.10;;;1.10;;
673;SDS011;319;48.764;9.174;2022-09-24T05:10:58;1.10;;;1.10;;
673;SDS011;319;48.764;9.174;2022-09-24T05:13:26;1.20;;;1.20;;
673;SDS011;319;48.764;9.174;2022-09-24T05:15:53;1.00;;;1.00;;
673;SDS011;319;48.764;9.174;2022-09-24T05:18:21;1.10;;;1.10;;
673;SDS011;319;48.764;9.174;2022-09-24T05:20:48;1.10;;;1.10;;
673;SDS011;319;48.764;9.174;2022-09-24T05:23:15;1.10;;;1.10;;
673;SDS011;319;48.764;9.174;2022-09-24T05:25:42;1.00;;;1.00;;
673;SDS011;319;48.764;9.174;2022-09-24T05:28:25;1.03;;;1.03;;
673;SDS011;319;48.764;9.174;2022-09-24T05:30:57;1.10;;;1.10;;
673;SDS011;319;48.764;9.174;2022-09-24T05:33:25;1.00;;;1.00;;
673;SDS011;319;48.764;9.174;2022-09-24T05:35:52;1.10;;;1.10;;
673;SDS011;319;48.764;9.174;2022-09-24T05:38:19;0.90;;;0.90;;
673;SDS011;319;48.764;9.174;2022-09-24T05:40:46;1.10;;;1.10;;
673;SDS011;319;48.764;9.174;2022-09-24T05:43:14;1.00;;;1.00;;
673;SDS011;319;48.764;9.174;2022-09-24T05:45:43;1.13;;;1.13;;
673;SDS011;319;48.764;9.174;2022-09-24T05:48:10;1.10;;;1.10;;
673;SDS011;319;48.764;9.174;2022-09-24T05:50:38;1.10;;;1.10;;
673;SDS011;319;48.764;9.174;2022-09-24T05:53:06;1.10;;;1.10;;
673;SDS011;319;48.764;9.174;2022-09-24T05:55:36;1.10;;;1.10;;
673;SDS011;319;48.764;9.174;2022-09-24T05:58:03;1.13;;;1.13;;
673;SDS011;319;48.764;9.174;2022-09-24T06:00:31;1.20;;;1.20;;
673;SDS011;319;48.764;9.174;2022-09-24T06:03:00;1.10;;;1.10;;
673;SDS011;319;48.764;9.174;2022-09-24T06:05:28;1.30;;;1.30;;
673;SDS011;319;48.764;9.174;2022-09-24T06:07:56;1.30;;;1.30;;
673;SDS011;319;48.764;9.174;2022-09-24T06:10:22;1.37;;;1.37;;
673;SDS011;319;48.764;9.174;2022-09-24T06:12:50;1.60;;;1.60;;
673;SDS011;319;48.764;9.174;2022-09-24T06:15:18;1.60;;;1.60;;
673;SDS011;319;48.764;9.174;2022-09-24T06:17:45;1.50;;;1.50;;
673;SDS011;319;48.764;9.174;2022-09-24T06:20:12;1.10;;;1.10;;
673;SDS011;319;48.764;9.174;2022-09-24T06:22:39;1.20;;;1.20;;
673;SDS011;319;48.764;9.174;2022-09-24T06:25:08;2.20;;;2.20;;
673;SDS011;319;48.764;9.174;2022-09-24T06:27:35;3.00;;;2.90;;
673;SDS011;319;48.764;9.174;2022-09-24T06:30:02;1.40;;;1.40;;
673;SDS011;319;48.764;9.174;2022-09-24T06:32:29;1.03;;;1.03;;
673;SDS011;319;48.764;9.174;2022-09-24T06:34:56;1.20;;;1.20;;
673;SDS011;319;48.764;9.174;2022-09-24T06:37:23;1.00;;;1.00;;
673;SDS011;319;48.764;9.174;2022-09-24T06:39:50;1.10;;;1.10;;
673;SDS011;319;48.764;9.174;2022-09-24T06:42:18;1.00;;;1.00;;
673;SDS011;319;48.764;9.174;2022-09-24T06:44:44;1.30;;;1.30;;
673;SDS011;319;48.764;9.174;2022-09-24T06:47:12;1.00;;;1.00;;
673;SDS011;319;48.764;9.174;2022-09-24T06:49:39;1.10;;;1.10;;
673;SDS011;319;48.764;9.174;2022-09-24T06:52:05;1.30;;;1.30;;
673;SDS011;319;48.764;9.174;2022-09-24T06:54:32;1.20;;;1.20;;
673;SDS011;319;48.764;9.174;2022-09-24T06:56:59;1.23;;;1.23;;
673;SDS011;319;48.764;9.174;2022-09-24T06:59:27;1.30;;;1.30;;
673;SDS011;319;48.764;9.174;2022-09-24T07:01:54;0.90;;;0.90;;
673;SDS011;319;48.764;9.174;2022-09-24T07:04:23;1.50;;;1.50;;
673;SDS011;319;48.764;9.174;2022-09-24T07:06:50;0.90;;;0.90;;
673;SDS011;319;48.764;9.174;2022-09-24T07:09:35;0.90;;;0.90;;
673;SDS011;319;48.764;9.174;2022-09-24T07:12:04;2.10;;;2.10;;
673;SDS011;319;48.764;9.174;2022-09-24T07:14:34;2.20;;;2.20;;
673;SDS011;319;48.764;9.174;2022-09-24T07:17:01;1.10;;;1.10;;
673;SDS011;319;48.764;9.174;2022-09-24T07:19:27;1.10;;;1.10;;
673;SDS011;319;48.764;9.174;2022-09-24T07:21:54;1.10;;;1.10;;
673;SDS011;319;48.764;9.174;2022-09-24T07:24:21;1.00;;;1.00;;
673;SDS011;319;48.764;9.174;2022-09-24T07:26:48;1.23;;;1.23;;
673;SDS011;319;48.764;9.174;2022-09-24T07:29:15;1.10;;;1.10;;
673;SDS011;319;48.764;9.174;2022-09-24T07:31:43;1.53;;;1.53;;
673;SDS011;319;48.764;9.174;2022-09-24T07:34:10;2.00;;;2.00;;
673;SDS011;319;48.764;9.174;2022-09-24T07:36:38;3.63;;;3.53;;
673;SDS011;319;48.764;9.174;2022-09-24T07:39:04;1.20;;;1.20;;
673;SDS011;319;48.764;9.174;2022-09-24T07:41:35;3.20;;;3.10;;
673;SDS011;319;48.764;9.174;2022-09-24T07:44:03;1.90;;;1.90;;
673;SDS011;319;48.764;9.174;2022-09-24T07:46:30;1.97;;;1.97;;
673;SDS011;319;48.764;9.174;2022-09-24T07:48:58;2.20;;;2.20;;
673;SDS011;319;48.764;9.174;2022-09-24T07:51:25;2.70;;;2.70;;
673;SDS011;319;48.764;9.174;2022-09-24T07:53:53;2.50;;;2.50;;
673;SDS011;319;48.764;9.174;2022-09-24T07:56:21;2.17;;;2.17;;
673;SDS011;319;48.764;9.174;2022-09-24T07:58:49;6.53;;;6.37;;
673;SDS011;319;48.764;9.174;2022-09-24T08:01:17;5.40;;;5.30;;
673;SDS011;319;48.764;9.174;2022-09-24T08:03:44;1.90;;;1.90;;
673;SDS011;319;48.764;9.174;2022-09-24T08:06:13;1.30;;;1.30;;
673;SDS011;319;48.764;9.174;2022-09-24T08:11:57;7.37;;;7.17;;
673;SDS011;319;48.764;9.174;2022-09-24T08:15:15;5.90;;;5.80;;
673;SDS011;319;48.764;9.174;2022-09-24T08:23:46;4.30;;;4.20;;
673;SDS011;319;48.764;9.174;2022-09-24T08:26:13;3.23;;;3.13;;
673;SDS011;319;48.764;9.174;2022-09-24T08:28:40;1.90;;;1.90;;
673;SDS011;319;48.764;9.174;2022-09-24T08:31:09;8.00;;;7.80;;
673;SDS011;319;48.764;9.174;2022-09-24T08:33:38;4.73;;;4.63;;
673;SDS011;319;48.764;9.174;2022-09-24T08:36:06;6.90;;;6.70;;
673;SDS011;319;48.764;9.174;2022-09-24T08:38:34;4.63;;;4.53;;
673;SDS011;319;48.764;9.174;2022-09-24T08:41:04;1.50;;;1.50;;
673;SDS011;319;48.764;9.174;2022-09-24T08:43:45;6.43;;;6.27;;
673;SDS011;319;48.764;9.174;2022-09-24T08:46:21;7.70;;;7.50;;
673;SDS011;319;48.764;9.174;2022-09-24T08:49:12;9.03;;;8.83;;
673;SDS011;319;48.764;9.174;2022-09-24T08:51:42;8.40;;;8.20;;
673;SDS011;319;48.764;9.174;2022-09-24T08:54:19;10.90;;;10.60;;
673;SDS011;319;48.764;9.174;2022-09-24T08:56:49;9.07;;;8.87;;
673;SDS011;319;48.764;9.174;2022-09-24T08:59:21;0.90;;;0.90;;
673;SDS011;319;48.764;9.174;2022-09-24T09:01:54;0.90;;;0.90;;
673;SDS011;319;48.764;9.174;2022-09-24T09:04:30;1.00;;;1.00;;
673;SDS011;319;48.764;9.174;2022-09-24T09:07:07;1.00;;;1.00;;
673;SDS011;319;48.764;9.174;2022-09-24T09:09:40;1.00;;;1.00;;
673;SDS011;319;48.764;9.174;2022-09-24T09:12:13;1.00;;;1.00;;
673;SDS011;319;48.764;9.174;2022-09-24T09:14:44;1.00;;;1.00;;
673;SDS011;319;48.764;9.174;2022-09-24T09:17:19;1.00;;;1.00;;
673;SDS011;319;48.764;9.174;2022-09-24T09:19:56;1.03;;;1.03;;
673;SDS011;319;48.764;9.174;2022-09-24T09:22:27;0.97;;;0.97;;
673;SDS011;319;48.764;9.174;2022-09-24T09:24:58;1.00;;;1.00;;
673;SDS011;319;48.764;9.174;2022-09-24T09:27:30;1.03;;;1.03;;
673;SDS011;319;48.764;9.174;2022-09-24T09:30:11;1.00;;;1.00;;
673;SDS011;319;48.764;9.174;2022-09-24T09:32:44;1.00;;;1.00;;
673;SDS011;319;48.764;9.174;2022-09-24T09:35:30;1.00;;;1.00;;
673;SDS011;319;48.764;9.174;2022-09-24T09:38:03;1.00;;;1.00;;
673;SDS011;319;48.764;9.174;2022-09-24T09:40:38;1.10;;;1.10;;
673;SDS011;319;48.764;9.174;2022-09-24T09:43:14;1.10;;;1.10;;
673;SDS011;319;48.764;9.174;2022-09-24T09:45:43;1.03;;;1.03;;
673;SDS011;319;48.764;9.174;2022-09-24T09:48:33;1.00;;;1.00;;
673;SDS011;319;48.764;9.174;2022-09-24T09:51:08;1.00;;;1.00;;
673;SDS011;319;48.764;9.174;2022-09-24T09:53:52;0.90;;;0.90;;
673;SDS011;319;48.764;9.174;2022-09-24T09:56:22;1.00;;;1.00;;
673;SDS011;319;48.764;9.174;2022-09-24T09:58:59;1.00;;;1.00;;
673;SDS011;319;48.764;9.174;2022-09-24T10:01:31;0.97;;;0.97;;
673;SDS011;319;48.764;9.174;2022-09-24T10:04:00;1.00;;;1.00;;
673;SDS011;319;48.764;9.174;2022-09-24T10:06:29;0.90;;;0.90;;
673;SDS011;319;48.764;9.174;2022-09-24T10:09:10;1.00;;;1.00;;
673;SDS011;319;48.764;9.174;2022-09-24T10:11:45;1.00;;;1.00;;
673;SDS011;319;48.764;9.174;2022-09-24T10:14:14;1.00;;;1.00;;
673;SDS011;319;48.764;9.174;2022-09-24T10:16:43;1.10;;;1.10;;
673;SDS011;319;48.764;9.174;2022-09-24T10:19:23;1.00;;;1.00;;
673;SDS011;319;48.764;9.174;2022-09-24T10:21:54;1.00;;;1.00;;
673;SDS011;319;48.764;9.174;2022-09-24T10:24:23;0.93;;;0.93;;
673;SDS011;319;48.764;9.174;2022-09-24T10:26:55;1.00;;;1.00;;
673;SDS011;319;48.764;9.174;2022-09-24T10:29:29;1.00;;;1.00;;
673;SDS011;319;48.764;9.174;2022-09-24T10:32:17;0.90;;;0.90;;
673;SDS011;319;48.764;9.174;2022-09-24T10:37:48;1.10;;;1.10;;
673;SDS011;319;48.764;9.174;2022-09-24T10:40:20;1.10;;;1.10;;
673;SDS011;319;48.764;9.174;2022-09-24T10:42:58;1.00;;;1.00;;
673;SDS011;319;48.764;9.174;2022-09-24T10:45:40;1.00;;;1.00;;
673;SDS011;319;48.764;9.174;2022-09-24T10:48:23;1.10;;;1.10;;
673;SDS011;319;48.764;9.174;2022-09-24T10:50:54;1.00;;;1.00;;
673;SDS011;319;48.764;9.174;2022-09-24T10:53:30;1.10;;;1.10;;
673;SDS011;319;48.764;9.174;2022-09-24T10:56:07;1.10;;;1.10;;
673;SDS011;319;48.764;9.174;2022-09-24T11:01:49;1.10;;;1.10;;
673;SDS011;319;48.764;9.174;2022-09-24T11:04:30;1.10;;;1.10;;
673;SDS011;319;48.764;9.174;2022-09-24T11:07:20;1.00;;;1.00;;
673;SDS011;319;48.764;9.174;2022-09-24T11:10:00;1.00;;;1.00;;
673;SDS011;319;48.764;9.174;2022-09-24T11:12:38;1.10;;;1.10;;
673;SDS011;319;48.764;9.174;2022-09-24T11:15:21;1.00;;;1.00;;
673;SDS011;319;48.764;9.174;2022-09-24T11:18:01;1.00;;;1.00;;
673;SDS011;319;48.764;9.174;2022-09-24T11:20:38;1.00;;;1.00;;
673;SDS011;319;48.764;9.174;2022-09-24T11:26:01;1.10;;;1.10;;
673;SDS011;319;48.764;9.174;2022-09-24T11:31:47;1.10;;;1.10;;
673;SDS011;319;48.764;9.174;2022-09-24T11:34:30;1.10;;;1.10;;
673;SDS011;319;48.764;9.174;2022-09-24T11:37:21;1.07;;;1.07;;
673;SDS011;319;48.764;9.174;2022-09-24T11:40:03;1.10;;;1.10;;
673;SDS011;319;48.764;9.174;2022-09-24T11:42:47;1.10;;;1.10;;
673;SDS011;319;48.764;9.174;2022-09-24T11:45:27;1.10;;;1.10;;
673;SDS011;319;48.764;9.174;2022-09-24T11:51:11;1.10;;;1.10;;
673;SDS011;319;48.764;9.174;2022-09-24T11:53:46;1.07;;;1.07;;
673;SDS011;319;48.764;9.174;2022-09-24T11:56:17;1.10;;;1.10;;
673;SDS011;319;48.764;9.174;2022-09-24T11:58:50;1.10;;;1.10;;
673;SDS011;319;48.764;9.174;2022-09-24T12:01:25;1.00;;;1.00;;
673;SDS011;319;48.764;9.174;2022-09-24T12:03:55;1.10;;;1.10;;
673;SDS011;319;48.764;9.174;2022-09-24T12:06:31;1.00;;;1.00;;
673;SDS011;319;48.764;9.174;2022-09-24T12:09:02;1.10;;;1.10;;
673;SDS011;319;48.764;9.174;2022-09-24T12:11:35;1.10;;;1.10;;
673;SDS011;319;48.764;9.174;2022-09-24T12:14:11;1.10;;;1.10;;
673;SDS011;319;48.764;9.174;2022-09-24T12:16:42;1.00;;;1.00;;
673;SDS011;319;48.764;9.174;2022-09-24T12:19:18;1.00;;;1.00;;
673;SDS011;319;48.764;9.174;2022-09-24T12:21:49;1.00;;;1.00;;
673;SDS011;319;48.764;9.174;2022-09-24T12:24:26;1.00;;;1.00;;
673;SDS011;319;48.764;9.174;2022-09-24T12:26:56;1.00;;;1.00;;
673;SDS011;319;48.764;9.174;2022-09-24T12:29:31;1.00;;;1.00;;
673;SDS011;319;48.764;9.174;2022-09-24T12:32:22;1.10;;;1.10;;
673;SDS011;319;48.764;9.174;2022-09-24T12:35:16;1.10;;;1.10;;
673;SDS011;319;48.764;9.174;2022-09-24T12:37:53;1.10;;;1.10;;
673;SDS011;319;48.764;9.174;2022-09-24T12:40:31;1.10;;;1.10;;
673;SDS011;319;48.764;9.174;2022-09-24T12:43:31;1.10;;;1.10;;
673;SDS011;319;48.764;9.174;2022-09-24T12:46:04;1.00;;;1.00;;
673;SDS011;319;48.764;9.174;2022-09-24T12:48:34;1.00;;;1.00;;
673;SDS011;319;48.764;9.174;2022-09-24T12:51:04;1.10;;;1.10;;
673;SDS011;319;48.764;9.174;2022-09-24T12:53:36;0.90;;;0.90;;
673;SDS011;319;48.764;9.174;2022-09-24T12:56:05;1.10;;;1.10;;
673;SDS011;319;48.764;9.174;2022-09-24T12:58:38;1.00;;;1.00;;
673;SDS011;319;48.764;9.174;2022-09-24T13:01:07;1.10;;;1.10;;
673;SDS011;319;48.764;9.174;2022-09-24T13:04:03;1.00;;;1.00;;
673;SDS011;319;48.764;9.174;2022-09-24T13:06:45;1.00;;;1.00;;
673;SDS011;319;48.764;9.174;2022-09-24T13:12:05;1.20;;;1.20;;
673;SDS011;319;48.764;9.174;2022-09-24T13:14:49;1.00;;;1.00;;
673;SDS011;319;48.764;9.174;2022-09-24T13:17:32;1.10;;;1.10;;
673;SDS011;319;48.764;9.174;2022-09-24T13:20:03;1.10;;;1.10;;
673;SDS011;319;48.764;9.174;2022-09-24T13:22:33;1.10;;;1.10;;
673;SDS011;319;48.764;9.174;2022-09-24T13:25:16;1.17;;;1.17;;
673;SDS011;319;48.764;9.174;2022-09-24T13:27:56;1.00;;;1.00;;
673;SDS011;319;48.764;9.174;2022-09-24T13:30:31;0.90;;;0.90;;
673;SDS011;319;48.764;9.174;2022-09-24T13:33:03;1.10;;;1.10;;
673;SDS011;319;48.764;9.174;2022-09-24T13:35:46;1.07;;;1.07;;
673;SDS011;319;48.764;9.174;2022-09-24T13:38:21;1.10;;;1.10;;
673;SDS011;319;48.764;9.174;2022-09-24T13:40:55;1.40;;;1.40;;
673;SDS011;319;48.764;9.174;2022-09-24T13:43:31;1.40;;;1.40;;
673;SDS011;319;48.764;9.174;2022-09-24T13:46:04;1.40;;;1.40;;
673;SDS011;319;48.764;9.174;2022-09-24T13:48:34;1.40;;;1.40;;
673;SDS011;319;48.764;9.174;2022-09-24T13:51:03;1.30;;;1.30;;
673;SDS011;319;48.764;9.174;2022-09-24T13:53:36;1.30;;;1.30;;
673;SDS011;319;48.764;9.174;2022-09-24T13:56:16;1.40;;;1.40;;
673;SDS011;319;48.764;9.174;2022-09-24T13:58:50;1.40;;;1.40;;
673;SDS011;319;48.764;9.174;2022-09-24T14:01:30;1.50;;;1.50;;
673;SDS011;319;48.764;9.174;2022-09-24T14:04:12;1.50;;;1.50;;
673;SDS011;319;48.764;9.174;2022-09-24T14:06:43;1.40;;;1.40;;
673;SDS011;319;48.764;9.174;2022-09-24T14:09:21;1.27;;;1.27;;
673;SDS011;319;48.764;9.174;2022-09-24T14:11:54;1.30;;;1.30;;
673;SDS011;319;48.764;9.174;2022-09-24T14:14:23;1.40;;;1.40;;
673;SDS011;319;48.764;9.174;2022-09-24T14:17:04;1.20;;;1.20;;
673;SDS011;319;48.764;9.174;2022-09-24T14:19:31;1.20;;;1.20;;
673;SDS011;319;48.764;9.174;2022-09-24T14:22:00;1.30;;;1.30;;
673;SDS011;319;48.764;9.174;2022-09-24T14:24:30;1.30;;;1.30;;
673;SDS011;319;48.764;9.174;2022-09-24T14:27:02;1.13;;;1.13;;
673;SDS011;319;48.764;9.174;2022-09-24T14:29:37;1.10;;;1.10;;
673;SDS011;319;48.764;9.174;2022-09-24T14:32:17;1.20;;;1.20;;
673;SDS011;319;48.764;9.174;2022-09-24T14:34:51;1.40;;;1.40;;
673;SDS011;319;48.764;9.174;2022-09-24T14:37:21;1.30;;;1.30;;
673;SDS011;319;48.764;9.174;2022-09-24T14:39:56;1.20;;;1.20;;
673;SDS011;319;48.764;9.174;2022-09-24T14:42:28;1.37;;;1.37;;
673;SDS011;319;48.764;9.174;2022-09-24T14:45:01;1.30;;;1.30;;
673;SDS011;319;48.764;9.174;2022-09-24T14:47:31;2.07;;;1.97;;
673;SDS011;319;48.764;9.174;2022-09-24T14:52:59;1.20;;;1.20;;
673;SDS011;319;48.764;9.174;2022-09-24T14:55:34;1.20;;;1.20;;
673;SDS011;319;48.764;9.174;2022-09-24T14:58:04;1.20;;;1.20;;
673;SDS011;319;48.764;9.174;2022-09-24T15:00:47;1.10;;;1.10;;
673;SDS011;319;48.764;9.174;2022-09-24T15:03:16;1.10;;;1.10;;
673;SDS011;319;48.764;9.174;2022-09-24T15:05:47;1.13;;;1.13;;
673;SDS011;319;48.764;9.174;2022-09-24T15:08:21;2.20;;;2.00;;
673;SDS011;319;48.764;9.174;2022-09-24T15:10:52;1.20;;;1.20;;
673;SDS011;319;48.764;9.174;2022-09-24T15:13:23;1.20;;;1.20;;
673;SDS011;319;48.764;9.174;2022-09-24T15:16:05;1.30;;;1.30;;
673;SDS011;319;48.764;9.174;2022-09-24T15:18:41;1.20;;;1.20;;
673;SDS011;319;48.764;9.174;2022-09-24T15:21:09;1.30;;;1.30;;
673;SDS011;319;48.764;9.174;2022-09-24T15:23:36;1.20;;;1.20;;
673;SDS011;319;48.764;9.174;2022-09-24T15:26:03;1.30;;;1.30;;
673;SDS011;319;48.764;9.174;2022-09-24T15:28:32;1.20;;;1.20;;
673;SDS011;319;48.764;9.174;2022-09-24T15:30:58;1.20;;;1.20;;
673;SDS011;319;48.764;9.174;2022-09-24T15:33:25;1.30;;;1.30;;
673;SDS011;319;48.764;9.174;2022-09-24T15:35:52;1.53;;;1.53;;
673;SDS011;319;48.764;9.174;2022-09-24T15:38:19;1.20;;;1.20;;
673;SDS011;319;48.764;9.174;2022-09-24T15:40:46;1.20;;;1.20;;
673;SDS011;319;48.764;9.174;2022-09-24T15:43:18;1.20;;;1.20;;
673;SDS011;319;48.764;9.174;2022-09-24T15:45:48;1.10;;;1.10;;
673;SDS011;319;48.764;9.174;2022-09-24T15:48:15;1.10;;;1.10;;
673;SDS011;319;48.764;9.174;2022-09-24T15:50:43;1.03;;;1.03;;
673;SDS011;319;48.764;9.174;2022-09-24T15:53:14;1.20;;;1.20;;
673;SDS011;319;48.764;9.174;2022-09-24T15:55:44;1.20;;;1.20;;
673;SDS011;319;48.764;9.174;2022-09-24T16:00:41;1.13;;;1.13;;
673;SDS011;319;48.764;9.174;2022-09-24T16:03:10;1.20;;;1.20;;
673;SDS011;319;48.764;9.174;2022-09-24T16:05:43;1.20;;;1.20;;
673;SDS011;319;48.764;9.174;2022-09-24T16:08:09;1.10;;;1.10;;
673;SDS011;319;48.764;9.174;2022-09-24T16:10:37;1.10;;;1.10;;
673;SDS011;319;48.764;9.174;2022-09-24T16:13:04;1.20;;;1.20;;
673;SDS011;319;48.764;9.174;2022-09-24T16:15:32;1.20;;;1.20;;
673;SDS011;319;48.764;9.174;2022-09-24T16:17:59;1.10;;;1.10;;
673;SDS011;319;48.764;9.174;2022-09-24T16:20:27;1.10;;;1.10;;
673;SDS011;319;48.764;9.174;2022-09-24T16:22:54;1.10;;;1.10;;
673;SDS011;319;48.764;9.174;2022-09-24T16:25:21;1.20;;;1.20;;
673;SDS011;319;48.764;9.174;2022-09-24T16:27:48;1.10;;;1.10;;
673;SDS011;319;48.764;9.174;2022-09-24T16:30:15;1.10;;;1.10;;
673;SDS011;319;48.764;9.174;2022-09-24T16:32:42;1.20;;;1.20;;
673;SDS011;319;48.764;9.174;2022-09-24T16:35:09;1.30;;;1.30;;
673;SDS011;319;48.764;9.174;2022-09-24T16:37:38;1.10;;;1.10;;
673;SDS011;319;48.764;9.174;2022-09-24T16:40:06;1.20;;;1.20;;
673;SDS011;319;48.764;9.174;2022-09-24T16:42:34;1.10;;;1.10;;
673;SDS011;319;48.764;9.174;2022-09-24T16:45:01;1.20;;;1.20;;
673;SDS011;319;48.764;9.174;2022-09-24T16:47:28;1.20;;;1.20;;